createdAt,value
2022-08-15T00:00:26.502Z,99230.34
2022-08-15T00:04:01.252Z,99238.59
2022-08-15T00:06:38.207Z,99236.91
2022-08-15T00:09:54.818Z,99231.31
2022-08-15T00:12:27.928Z,99235.12
2022-08-15T00:15:34.203Z,99233.75
2022-08-15T00:18:24.830Z,99234.19
2022-08-15T00:21:29.750Z,99235.12
2022-08-15T00:24:29.458Z,99248.06
2022-08-15T00:27:14.177Z,99237.63
2022-08-15T00:29:44.949Z,99236.31
2022-08-15T00:33:15.024Z,99232.56
2022-08-15T00:35:41.244Z,99236.91
2022-08-15T00:38:42.071Z,99230.47
2022-08-15T00:41:42.722Z,99231.59
2022-08-15T00:44:53.262Z,99234.09
2022-08-15T00:47:31.410Z,99236.28
2022-08-15T00:50:34.258Z,99243.56
2022-08-15T00:53:17.161Z,99246.69
2022-08-15T00:56:06.946Z,99237.84
2022-08-15T00:58:55.866Z,99250.78
2022-08-15T01:02:23.136Z,99245.78
2022-08-15T01:04:59.997Z,99238.22
2022-08-15T01:08:05.331Z,99237.00
2022-08-15T01:10:36.658Z,99241.38
2022-08-15T01:13:19.057Z,99239.09
2022-08-15T01:15:57.212Z,99244.69
2022-08-15T01:19:21.257Z,99259.91
2022-08-15T01:22:14.824Z,99251.50
2022-08-15T01:25:16.661Z,99247.75
2022-08-15T01:28:07.334Z,99251.94
2022-08-15T01:31:13.025Z,99253.31
2022-08-15T01:33:50.587Z,99260.47
2022-08-15T01:36:59.026Z,99262.09
2022-08-15T01:39:56.834Z,99255.50
2022-08-15T01:42:43.112Z,99265.44
2022-08-15T01:45:35.786Z,99262.97
2022-08-15T01:48:21.414Z,99263.50
2022-08-15T01:51:09.905Z,99252.75
2022-08-15T01:53:49.921Z,99255.19
2022-08-15T01:56:45.661Z,99263.56
2022-08-15T01:59:25.160Z,99258.91
2022-08-15T02:02:39.580Z,99264.09
2022-08-15T02:05:02.624Z,99275.75
2022-08-15T02:08:32.458Z,99276.25
2022-08-15T02:10:45.405Z,99270.06
2022-08-15T02:13:25.045Z,99267.00
2022-08-15T02:15:59.071Z,99261.53
2022-08-15T02:19:12.219Z,99260.56
2022-08-15T02:22:26.953Z,99266.56
2022-08-15T02:25:01.104Z,99267.84
2022-08-15T02:28:34.232Z,99259.31
2022-08-15T02:31:23.776Z,99259.56
2022-08-15T02:34:44.512Z,99262.97
2022-08-15T02:37:23.322Z,99258.88
2022-08-15T02:40:44.263Z,99259.88
2022-08-15T02:43:11.234Z,99256.22
2022-08-15T02:46:28.166Z,99267.44
2022-08-15T02:49:12.644Z,99259.00
2022-08-15T02:51:46.935Z,99255.09
2022-08-15T02:54:59.804Z,99256.78
2022-08-15T02:57:59.281Z,99252.84
2022-08-15T03:00:54.846Z,99242.38
2022-08-15T03:03:47.713Z,99248.00
2022-08-15T03:06:58.775Z,99256.66
2022-08-15T03:10:06.393Z,99251.22
2022-08-15T03:13:08.624Z,99249.06
2022-08-15T03:16:21.464Z,99244.03
2022-08-15T03:19:05.066Z,99247.84
2022-08-15T03:21:54.336Z,99254.84
2022-08-15T03:25:02.399Z,99255.69
2022-08-15T03:28:27.405Z,99255.94
2022-08-15T03:31:23.226Z,99255.25
2022-08-15T03:34:15.702Z,99259.19
2022-08-15T03:37:23.480Z,99262.75
2022-08-15T03:40:32.131Z,99258.19
2022-08-15T03:43:41.021Z,99263.09
2022-08-15T03:46:39.010Z,99263.75
2022-08-15T03:53:00.147Z,99268.94
2022-08-15T03:55:59.057Z,99271.34
2022-08-15T03:59:05.307Z,99271.25
2022-08-15T04:02:11.872Z,99281.78
2022-08-15T04:05:17.865Z,99281.06
2022-08-15T04:08:44.754Z,99287.81
2022-08-15T04:11:07.623Z,99289.50
2022-08-15T04:13:45.033Z,99276.91
2022-08-15T04:17:02.205Z,99287.38
2022-08-15T04:19:10.153Z,99278.88
2022-08-15T04:22:07.662Z,99289.22
2022-08-15T04:24:55.264Z,99279.69
2022-08-15T04:27:57.919Z,99284.63
2022-08-15T04:30:28.462Z,99287.97
2022-08-15T04:34:00.047Z,99291.72
2022-08-15T04:36:30.437Z,99286.44
2022-08-15T04:39:32.658Z,99294.25
2022-08-15T04:42:50.978Z,99291.16
2022-08-15T04:45:31.562Z,99290.50
2022-08-15T04:48:20.784Z,99287.13
2022-08-15T04:51:18.771Z,99294.41
2022-08-15T04:54:27.064Z,99300.44
2022-08-15T04:56:59.039Z,99288.69
2022-08-15T05:00:09.041Z,99282.63
2022-08-15T05:03:14.802Z,99287.34
2022-08-15T05:06:03.984Z,99286.06
2022-08-15T05:09:11.716Z,99280.84
2022-08-15T05:12:23.389Z,99279.56
2022-08-15T05:15:31.562Z,99277.25
2022-08-15T05:18:35.022Z,99271.50
2022-08-15T05:21:44.132Z,99269.97
2022-08-15T05:24:50.654Z,99270.28
2022-08-15T05:27:39.602Z,99267.31
2022-08-15T05:30:34.240Z,99272.62
2022-08-15T05:33:10.507Z,99267.44
2022-08-15T05:35:44.004Z,99265.09
2022-08-15T05:38:31.568Z,99263.50
2022-08-15T05:41:20.158Z,99264.88
2022-08-15T05:43:55.534Z,99270.50
2022-08-15T05:46:27.774Z,99270.94
2022-08-15T05:49:11.383Z,99268.38
2022-08-15T05:51:53.774Z,99274.47
2022-08-15T05:55:07.829Z,99275.22
2022-08-15T05:57:45.418Z,99268.78
2022-08-15T06:00:17.595Z,99270.47
2022-08-15T06:02:57.756Z,99268.91
2022-08-15T06:05:35.724Z,99270.81
2022-08-15T06:08:50.480Z,99274.88
2022-08-15T06:11:10.026Z,99272.62
2022-08-15T06:13:44.699Z,99279.25
2022-08-15T06:16:46.317Z,99272.75
2022-08-15T06:19:24.217Z,99278.75
2022-08-15T06:22:31.462Z,99278.13
2022-08-15T06:26:04.435Z,99277.09
2022-08-15T06:29:06.107Z,99276.13
2022-08-15T06:32:24.684Z,99270.44
2022-08-15T06:35:33.583Z,99270.13
2022-08-15T06:39:03.538Z,99279.34
2022-08-15T07:02:21.330Z,99265.78
2022-08-15T07:05:03.500Z,99265.78
2022-08-15T07:07:44.423Z,99271.50
2022-08-15T07:10:33.539Z,99280.44
2022-08-15T07:13:10.098Z,99269.50
2022-08-15T07:15:57.882Z,99267.09
2022-08-15T07:18:35.842Z,99278.44
2022-08-15T07:21:53.776Z,99277.37
2022-08-15T07:24:34.998Z,99278.56
2022-08-15T07:27:07.167Z,99261.47
2022-08-15T07:29:55.705Z,99278.75
2022-08-15T07:32:33.625Z,99273.94
2022-08-15T07:35:40.466Z,99281.88
2022-08-15T07:38:25.746Z,99276.75
2022-08-15T07:41:14.266Z,99278.13
2022-08-15T07:43:52.608Z,99280.25
2022-08-15T07:46:38.186Z,99273.56
2022-08-15T07:49:26.414Z,99280.94
2022-08-15T08:01:34.132Z,99285.69
2022-08-15T08:04:23.153Z,99280.50
2022-08-15T08:07:32.731Z,99283.69
2022-08-15T08:10:23.179Z,99281.12
2022-08-15T08:13:16.583Z,99270.47
2022-08-15T08:46:59.963Z,99268.28
2022-08-15T09:08:47.701Z,99257.09
2022-08-15T09:48:03.222Z,99233.66
2022-08-15T11:23:07.978Z,99155.41
2022-08-15T11:25:59.977Z,99146.91
2022-08-15T11:28:56.364Z,99151.47
2022-08-15T11:32:00.441Z,99154.56
2022-08-15T11:34:50.475Z,99152.69
2022-08-15T11:37:55.709Z,99145.09
2022-08-15T11:57:04.534Z,99141.13
2022-08-15T12:37:03.990Z,99099.13
2022-08-15T12:40:05.410Z,99094.87
2022-08-15T12:49:00.460Z,99088.59
2022-08-15T13:01:31.901Z,99083.06
2022-08-15T13:04:41.130Z,99079.00
2022-08-15T13:07:14.205Z,99087.28
2022-08-15T13:11:00.498Z,99089.97
2022-08-15T14:17:21.850Z,99043.09
2022-08-15T14:20:05.188Z,99037.12
2022-08-15T14:22:35.468Z,99042.78
2022-08-15T14:27:14.103Z,99042.75
2022-08-15T14:28:06.239Z,99047.16
2022-08-15T14:30:55.263Z,99044.72
2022-08-15T14:50:53.005Z,99026.91
2022-08-15T14:52:29.289Z,99023.63
2022-08-15T14:55:17.829Z,99022.56
2022-08-15T14:58:04.898Z,99023.75
2022-08-15T15:00:47.237Z,99025.09
2022-08-15T15:03:32.178Z,99022.62
2022-08-15T15:06:31.206Z,99020.16
2022-08-15T15:09:16.745Z,99021.06
2022-08-15T15:12:03.063Z,99014.97
2022-08-15T15:14:32.639Z,99030.06
2022-08-15T15:17:04.677Z,99024.97
2022-08-15T15:19:54.365Z,99029.44
2022-08-15T15:22:25.312Z,99031.47
2022-08-15T15:24:59.704Z,99018.22
2022-08-15T15:27:35.477Z,99025.69
2022-08-15T15:30:23.347Z,99023.38
2022-08-15T15:32:54.810Z,99021.62
2022-08-15T15:35:24.948Z,99027.25
2022-08-15T15:38:34.517Z,99022.75
2022-08-15T15:40:43.810Z,99013.38
2022-08-15T15:43:32.288Z,99014.34
2022-08-15T15:46:08.827Z,99021.59
2022-08-15T15:49:01.658Z,99021.28
2022-08-15T15:51:33.675Z,99011.09
2022-08-15T15:54:36.300Z,99021.50
2022-08-15T15:56:53.183Z,99018.09
2022-08-15T15:59:24.654Z,99018.66
2022-08-15T16:02:44.660Z,99017.50
2022-08-15T16:05:20.873Z,99015.97
2022-08-15T16:07:56.337Z,99020.00
2022-08-15T16:11:04.894Z,99026.91
2022-08-15T16:13:56.090Z,99019.53
2022-08-15T16:16:48.372Z,99032.66
2022-08-15T16:19:30.347Z,99029.62
2022-08-15T16:22:19.591Z,99027.72
2022-08-15T16:25:15.531Z,99029.09
2022-08-15T16:27:58.004Z,99034.41
2022-08-15T16:30:53.117Z,99031.94
2022-08-15T16:33:54.368Z,99040.03
2022-08-15T16:36:46.869Z,99029.66
2022-08-15T16:39:27.826Z,99031.47
2022-08-15T16:42:04.308Z,99030.72
2022-08-15T16:44:42.920Z,99026.03
2022-08-15T16:47:45.343Z,99026.06
2022-08-15T16:50:28.290Z,99026.37
2022-08-15T16:53:35.517Z,99026.50
2022-08-15T16:56:46.595Z,99026.97
2022-08-15T16:59:33.635Z,99029.28
2022-08-15T17:03:07.350Z,99023.50
2022-08-15T17:05:41.317Z,99022.53
2022-08-15T17:09:21.667Z,99018.09
2022-08-15T17:12:24.263Z,99023.63
2022-08-15T17:14:55.815Z,99024.22
2022-08-15T17:17:32.698Z,99025.16
2022-08-15T17:20:40.874Z,99030.00
2022-08-15T17:23:23.863Z,99036.66
2022-08-15T17:26:58.342Z,99038.13
2022-08-15T17:29:14.833Z,99037.19
2022-08-15T17:31:53.630Z,99045.78
2022-08-15T17:34:39.961Z,99050.72
2022-08-15T17:37:19.278Z,99050.72
2022-08-15T17:39:53.145Z,99052.66
2022-08-15T17:42:26.938Z,99054.44
2022-08-15T17:45:37.139Z,99056.75
2022-08-15T17:48:30.236Z,99066.13
2022-08-15T17:51:07.487Z,99072.59
2022-08-15T17:53:58.235Z,99070.72
2022-08-15T17:56:50.992Z,99066.97
2022-08-15T18:00:02.739Z,99066.94
2022-08-15T18:02:43.538Z,99075.69
2022-08-15T18:05:20.174Z,99077.75
2022-08-15T18:07:59.412Z,99081.28
2022-08-15T18:10:46.312Z,99092.06
2022-08-15T18:13:16.931Z,99100.13
2022-08-15T18:16:18.422Z,99104.09
2022-08-15T18:18:58.385Z,99103.28
2022-08-15T18:22:01.637Z,99117.13
2022-08-15T18:24:38.832Z,99119.69
2022-08-15T18:27:34.749Z,99119.44
2022-08-15T18:30:32.248Z,99117.34
2022-08-15T18:33:17.215Z,99119.22
2022-08-15T18:35:46.160Z,99120.62
2022-08-15T18:38:30.874Z,99122.13
2022-08-15T18:41:13.681Z,99125.84
2022-08-15T18:44:00.593Z,99128.25
2022-08-15T18:46:38.454Z,99131.69
2022-08-15T18:49:28.877Z,99133.56
2022-08-15T18:52:20.298Z,99132.16
2022-08-15T18:55:05.460Z,99141.16
2022-08-15T18:57:46.890Z,99146.16
2022-08-15T19:00:33.724Z,99152.53
2022-08-15T19:03:07.910Z,99150.06
2022-08-15T19:05:49.119Z,99149.63
2022-08-15T19:08:48.463Z,99161.47
2022-08-15T19:11:48.211Z,99158.53
2022-08-15T19:14:34.836Z,99163.28
2022-08-15T19:17:16.965Z,99166.56
2022-08-15T19:20:26.498Z,99168.47
2022-08-15T19:23:01.835Z,99172.22
2022-08-15T19:26:00.636Z,99160.00
2022-08-15T19:29:34.970Z,99163.69
2022-08-15T19:32:25.874Z,99162.00
2022-08-15T19:35:23.960Z,99169.94
2022-08-15T19:38:18.244Z,99174.12
2022-08-15T19:41:15.158Z,99175.94
2022-08-15T19:44:07.389Z,99176.59
2022-08-15T19:47:29.694Z,99180.78
2022-08-15T19:50:39.753Z,99180.34
2022-08-15T19:53:43.211Z,99180.28
2022-08-15T19:56:47.282Z,99187.78
2022-08-15T19:59:58.727Z,99185.37
2022-08-15T20:02:30.251Z,99180.47
2022-08-15T20:06:04.027Z,99182.72
2022-08-15T20:08:40.149Z,99185.19
2022-08-15T20:11:37.838Z,99188.19
2022-08-15T20:14:51.115Z,99194.13
2022-08-15T20:18:01.407Z,99188.75
2022-08-15T20:21:01.581Z,99198.94
2022-08-15T20:23:55.521Z,99207.81
2022-08-15T20:26:51.666Z,99204.25
2022-08-15T20:30:19.851Z,99208.22
2022-08-15T20:33:16.885Z,99208.19
2022-08-15T20:35:59.045Z,99206.38
2022-08-15T20:38:52.210Z,99203.59
2022-08-15T20:41:51.172Z,99209.34
2022-08-15T20:44:44.344Z,99217.41
2022-08-15T20:47:43.740Z,99214.34
2022-08-15T20:50:25.541Z,99213.41
2022-08-15T20:53:07.404Z,99215.75
2022-08-15T20:55:53.911Z,99223.25
2022-08-15T20:58:37.804Z,99216.94
2022-08-15T21:01:33.627Z,99224.72
2022-08-15T21:04:26.843Z,99233.34
2022-08-15T21:06:59.500Z,99225.69
2022-08-15T21:09:53.492Z,99226.50
2022-08-15T21:13:04.677Z,99226.78
2022-08-15T21:16:32.467Z,99230.41
2022-08-15T21:19:35.427Z,99230.91
2022-08-15T21:22:48.390Z,99227.31
2022-08-15T21:25:42.519Z,99230.63
2022-08-15T21:28:30.569Z,99229.91
2022-08-15T21:31:39.799Z,99226.50
2022-08-15T21:34:33.263Z,99230.72
2022-08-15T21:37:53.537Z,99234.97
2022-08-15T21:40:46.025Z,99237.28
2022-08-15T21:43:41.226Z,99237.59
2022-08-15T21:46:31.554Z,99243.44
2022-08-15T21:49:38.627Z,99251.69
2022-08-15T21:52:15.750Z,99247.06
2022-08-15T21:54:53.052Z,99246.50
2022-08-15T21:57:48.185Z,99244.31
2022-08-15T22:00:29.329Z,99237.50
2022-08-15T22:03:35.729Z,99242.31
2022-08-15T22:06:21.506Z,99235.72
2022-08-15T22:08:59.318Z,99240.38
2022-08-15T22:11:42.424Z,99238.13
2022-08-15T22:14:28.819Z,99236.88
2022-08-15T22:17:01.806Z,99245.50
2022-08-15T22:19:55.737Z,99246.81
2022-08-15T22:22:29.036Z,99244.56
2022-08-15T22:25:25.580Z,99238.97
2022-08-15T22:28:52.031Z,99242.66
2022-08-15T22:31:43.903Z,99239.31
2022-08-15T22:34:16.386Z,99241.66
2022-08-15T22:36:59.669Z,99234.47
2022-08-15T22:39:42.155Z,99242.03
2022-08-15T22:42:31.411Z,99248.88
2022-08-15T22:45:36.290Z,99240.44
2022-08-15T22:48:40.823Z,99242.56
2022-08-15T22:51:34.590Z,99239.13
2022-08-15T22:54:31.436Z,99236.19
2022-08-15T22:57:36.733Z,99249.94
2022-08-15T23:00:33.806Z,99254.00
2022-08-15T23:03:07.157Z,99253.16
2022-08-15T23:06:23.599Z,99248.06
2022-08-15T23:08:59.581Z,99243.34
2022-08-15T23:11:51.386Z,99236.41
2022-08-15T23:14:30.162Z,99239.91
2022-08-15T23:17:10.994Z,99234.31
2022-08-15T23:20:00.744Z,99241.78
2022-08-15T23:22:39.214Z,99237.19
2022-08-15T23:25:48.604Z,99239.03
2022-08-15T23:28:29.599Z,99234.69
2022-08-15T23:31:03.450Z,99230.31
2022-08-15T23:34:01.665Z,99230.34
2022-08-15T23:37:14.289Z,99238.34
2022-08-15T23:40:07.133Z,99231.53
2022-08-15T23:42:52.322Z,99223.47
2022-08-15T23:46:37.263Z,99227.81
2022-08-15T23:48:51.597Z,99229.00
2022-08-15T23:51:29.904Z,99222.25
2022-08-15T23:54:00.203Z,99227.66
2022-08-15T23:57:28.628Z,99221.13
